createdAt,value
2022-11-25T00:01:09.129Z,76.24
2022-11-25T00:03:41.667Z,76.54
2022-11-25T00:06:24.377Z,76.62
2022-11-25T00:09:01.301Z,77.41
2022-11-25T00:11:32.976Z,77.23
2022-11-25T00:14:04.366Z,77.33
2022-11-25T00:16:36.190Z,78.64
2022-11-25T00:19:07.628Z,78.97
2022-11-25T00:21:39.707Z,79.10
2022-11-25T00:24:11.058Z,76.77
2022-11-25T00:26:42.456Z,77.98
2022-11-25T00:29:15.908Z,78.18
2022-11-25T00:31:47.418Z,77.77
2022-11-25T00:34:19.001Z,77.62
2022-11-25T00:36:50.466Z,75.53
2022-11-25T00:39:25.972Z,74.60
2022-11-25T00:42:15.521Z,74.43
2022-11-25T00:44:47.257Z,73.73
2022-11-25T00:47:20.842Z,73.21
2022-11-25T00:49:56.552Z,72.99
2022-11-25T00:52:29.357Z,72.97
2022-11-25T00:55:00.820Z,73.52
2022-11-25T00:57:32.725Z,73.29
2022-11-25T01:00:04.520Z,73.36
2022-11-25T01:02:35.953Z,72.66
2022-11-25T01:05:07.803Z,72.59
2022-11-25T01:07:39.179Z,72.85
2022-11-25T01:10:11.127Z,72.21
2022-11-25T01:12:42.561Z,72.51
2022-11-25T01:15:14.084Z,72.06
2022-11-25T01:17:45.421Z,72.26
2022-11-25T01:20:18.826Z,72.52
2022-11-25T01:22:50.176Z,72.60
2022-11-25T01:25:21.574Z,72.09
2022-11-25T01:27:52.931Z,72.45
2022-11-25T01:30:24.354Z,72.51
2022-11-25T01:32:57.723Z,72.10
2022-11-25T01:35:30.855Z,72.23
2022-11-25T01:38:07.048Z,72.29
2022-11-25T01:40:38.787Z,72.10
2022-11-25T01:43:16.644Z,71.96
2022-11-25T01:45:48.096Z,71.71
2022-11-25T01:48:30.794Z,71.50
2022-11-25T01:51:02.591Z,71.75
2022-11-25T01:53:34.979Z,71.52
2022-11-25T01:56:06.956Z,71.74
2022-11-25T01:58:40.561Z,71.75
2022-11-25T02:01:13.404Z,71.04
2022-11-25T02:03:49.517Z,71.00
2022-11-25T02:06:26.362Z,71.18
2022-11-25T02:09:07.603Z,70.83
2022-11-25T02:11:42.488Z,70.89
2022-11-25T02:14:17.793Z,71.08
2022-11-25T02:16:49.551Z,70.89
2022-11-25T02:19:25.227Z,72.31
2022-11-25T02:22:05.619Z,71.16
2022-11-25T02:24:47.846Z,71.01
2022-11-25T02:27:21.053Z,70.49
2022-11-25T02:29:53.511Z,70.77
2022-11-25T02:32:25.613Z,70.37
2022-11-25T02:34:57.038Z,70.48
2022-11-25T02:37:28.867Z,70.25
2022-11-25T02:40:00.390Z,70.31
2022-11-25T02:42:32.873Z,70.60
2022-11-25T02:45:04.940Z,70.02
2022-11-25T02:47:36.285Z,69.94
2022-11-25T02:50:08.242Z,70.86
2022-11-25T02:52:39.486Z,70.42
2022-11-25T02:55:11.451Z,69.79
2022-11-25T02:57:44.035Z,69.95
2022-11-25T03:00:15.777Z,70.01
2022-11-25T03:02:47.141Z,69.70
2022-11-25T03:05:18.429Z,69.33
2022-11-25T03:07:49.873Z,69.56
2022-11-25T03:10:23.879Z,69.65
2022-11-25T03:12:55.653Z,69.59
2022-11-25T03:15:27.959Z,69.32
2022-11-25T03:17:59.593Z,68.85
2022-11-25T03:20:31.904Z,69.54
2022-11-25T03:23:03.479Z,68.90
2022-11-25T03:25:35.345Z,68.91
2022-11-25T03:28:07.700Z,68.73
2022-11-25T03:30:39.085Z,68.98
2022-11-25T03:33:10.439Z,68.90
2022-11-25T03:35:42.217Z,68.97
2022-11-25T03:38:13.487Z,68.76
2022-11-25T03:40:44.951Z,68.91
2022-11-25T03:43:16.394Z,68.58
2022-11-25T03:45:51.680Z,68.56
2022-11-25T03:48:23.090Z,68.61
2022-11-25T03:50:54.533Z,68.84
2022-11-25T03:53:28.253Z,68.54
2022-11-25T03:56:03.312Z,68.35
2022-11-25T03:58:34.805Z,68.52
2022-11-25T04:01:07.940Z,68.49
2022-11-25T04:03:39.621Z,68.11
2022-11-25T04:06:11.648Z,68.23
2022-11-25T04:08:43.314Z,68.95
2022-11-25T04:11:15.186Z,68.75
2022-11-25T04:13:50.677Z,68.21
2022-11-25T04:16:28.928Z,68.32
2022-11-25T04:19:00.318Z,68.46
2022-11-25T04:21:32.322Z,68.25
2022-11-25T04:24:04.726Z,68.39
2022-11-25T04:26:37.723Z,68.11
2022-11-25T04:29:09.406Z,67.86
2022-11-25T04:31:40.664Z,68.93
2022-11-25T04:34:12.253Z,67.94
2022-11-25T04:36:44.260Z,68.51
2022-11-25T04:39:20.435Z,68.33
2022-11-25T04:42:17.807Z,67.80
2022-11-25T04:45:14.017Z,67.77
2022-11-25T04:47:42.066Z,68.15
2022-11-25T04:50:20.165Z,67.82
2022-11-25T04:53:01.491Z,68.12
2022-11-25T04:55:33.696Z,67.74
2022-11-25T04:58:09.539Z,67.89
2022-11-25T05:00:41.809Z,67.76
2022-11-25T05:03:16.388Z,67.71
2022-11-25T05:05:47.759Z,67.53
2022-11-25T05:08:19.127Z,68.34
2022-11-25T05:10:50.569Z,67.70
2022-11-25T05:13:22.102Z,67.90
2022-11-25T05:15:53.573Z,67.65
2022-11-25T05:18:26.732Z,67.42
2022-11-25T05:21:02.334Z,67.50
2022-11-25T05:23:35.573Z,67.83
2022-11-25T05:26:07.858Z,67.43
2022-11-25T05:28:46.861Z,67.59
2022-11-25T05:31:18.532Z,67.45
2022-11-25T05:33:50.126Z,67.03
2022-11-25T05:36:22.544Z,67.53
2022-11-25T05:38:54.352Z,66.97
2022-11-25T05:41:35.591Z,67.32
2022-11-25T05:44:07.735Z,67.20
2022-11-25T05:46:39.598Z,67.10
2022-11-25T05:49:11.019Z,67.11
2022-11-25T05:51:43.140Z,67.02
2022-11-25T05:54:16.989Z,66.99
2022-11-25T05:56:49.074Z,67.10
2022-11-25T05:59:52.696Z,66.86
2022-11-25T06:02:42.095Z,67.04
2022-11-25T06:05:17.141Z,66.96
2022-11-25T06:07:48.627Z,66.59
2022-11-25T06:10:21.487Z,66.93
2022-11-25T06:12:55.279Z,66.82
2022-11-25T06:15:28.226Z,67.13
2022-11-25T06:18:02.033Z,66.63
2022-11-25T06:20:35.452Z,66.48
2022-11-25T06:23:08.808Z,66.99
2022-11-25T06:25:41.600Z,66.53
2022-11-25T06:28:13.632Z,66.97
2022-11-25T06:30:50.601Z,66.93
2022-11-25T06:33:35.925Z,66.93
2022-11-25T06:36:18.593Z,66.71
2022-11-25T06:38:55.210Z,66.34
2022-11-25T06:41:26.507Z,66.84
2022-11-25T06:43:58.435Z,66.81
2022-11-25T06:46:29.798Z,66.55
2022-11-25T06:49:02.507Z,66.47
2022-11-25T06:51:33.859Z,66.52
2022-11-25T06:54:05.563Z,66.60
2022-11-25T06:56:36.996Z,66.51
2022-11-25T06:59:09.268Z,66.27
2022-11-25T07:01:40.726Z,66.59
2022-11-25T07:04:13.254Z,66.49
2022-11-25T07:06:44.679Z,66.38
2022-11-25T07:09:15.983Z,66.27
2022-11-25T07:11:47.883Z,66.36
2022-11-25T07:14:19.638Z,66.50
2022-11-25T07:16:51.074Z,66.04
2022-11-25T07:19:22.606Z,66.19
2022-11-25T07:21:53.715Z,66.84
2022-11-25T07:24:25.165Z,66.39
2022-11-25T07:26:56.843Z,66.17
2022-11-25T07:29:54.218Z,66.40
2022-11-25T07:32:22.539Z,66.07
2022-11-25T07:34:54.061Z,65.93
2022-11-25T07:37:25.662Z,66.27
2022-11-25T07:39:57.551Z,66.23
2022-11-25T07:42:28.905Z,66.02
2022-11-25T07:45:00.449Z,65.81
2022-11-25T07:47:48.087Z,65.84
2022-11-25T07:50:19.533Z,66.07
2022-11-25T07:52:50.921Z,65.83
2022-11-25T07:55:22.384Z,65.92
2022-11-25T07:57:53.860Z,65.73
2022-11-25T08:00:25.624Z,65.54
2022-11-25T08:02:58.053Z,65.82
2022-11-25T08:05:29.769Z,65.48
2022-11-25T08:08:01.211Z,65.44
2022-11-25T08:10:32.581Z,65.39
2022-11-25T08:13:04.237Z,65.82
2022-11-25T08:15:35.887Z,65.58
2022-11-25T08:18:07.817Z,65.47
2022-11-25T08:20:39.246Z,65.63
2022-11-25T08:23:10.819Z,65.29
2022-11-25T08:25:49.000Z,65.03
2022-11-25T08:28:21.870Z,65.28
2022-11-25T08:30:53.372Z,65.55
2022-11-25T08:33:24.491Z,66.03
2022-11-25T08:35:56.613Z,65.34
2022-11-25T08:38:28.240Z,65.25
2022-11-25T08:41:03.313Z,65.12
2022-11-25T08:43:34.838Z,65.34
2022-11-25T08:46:14.082Z,65.09
2022-11-25T08:48:48.734Z,65.34
2022-11-25T08:51:23.300Z,65.13
2022-11-25T08:53:55.065Z,64.96
2022-11-25T08:56:28.172Z,65.02
2022-11-25T08:59:01.562Z,65.27
2022-11-25T09:01:33.171Z,65.11
2022-11-25T09:04:04.698Z,65.16
2022-11-25T09:06:37.133Z,65.33
2022-11-25T09:09:08.749Z,65.00
2022-11-25T09:11:40.216Z,65.02
2022-11-25T09:14:11.858Z,65.61
2022-11-25T09:16:43.847Z,66.20
2022-11-25T09:19:15.273Z,66.76
2022-11-25T09:21:46.658Z,66.58
2022-11-25T09:24:18.064Z,67.11
2022-11-25T09:26:50.778Z,67.51
2022-11-25T09:29:22.602Z,67.75
2022-11-25T09:31:55.132Z,68.41
2022-11-25T09:34:26.594Z,68.83
2022-11-25T09:36:58.236Z,69.42
2022-11-25T09:39:31.256Z,69.61
2022-11-25T09:42:55.903Z,69.74
2022-11-25T09:46:14.602Z,70.63
2022-11-25T09:49:05.688Z,71.08
2022-11-25T09:51:56.902Z,71.33
2022-11-25T09:54:40.061Z,71.56
2022-11-25T09:57:36.177Z,71.91
2022-11-25T10:00:09.159Z,71.63
2022-11-25T10:02:50.191Z,71.86
2022-11-25T10:05:29.036Z,71.62
2022-11-25T10:08:12.302Z,71.55
2022-11-25T10:10:55.210Z,71.86
2022-11-25T10:13:46.266Z,72.05
2022-11-25T10:16:36.191Z,71.88
2022-11-25T10:19:35.763Z,72.28
2022-11-25T10:22:29.964Z,72.05
2022-11-25T10:25:23.518Z,71.95
2022-11-25T10:27:57.999Z,72.12
2022-11-25T10:30:37.854Z,72.15
2022-11-25T10:33:22.651Z,72.54
2022-11-25T10:35:59.325Z,72.11
2022-11-25T10:38:57.802Z,72.21
2022-11-25T10:41:34.589Z,72.19
2022-11-25T10:44:06.433Z,72.24
2022-11-25T10:47:16.324Z,72.41
2022-11-25T10:50:03.500Z,72.17
2022-11-25T10:52:53.375Z,72.59
2022-11-25T10:55:28.072Z,72.44
2022-11-25T10:58:00.501Z,72.34
2022-11-25T11:00:40.474Z,72.03
2022-11-25T11:03:28.876Z,72.18
2022-11-25T11:06:00.766Z,72.27
2022-11-25T11:08:45.283Z,72.10
2022-11-25T11:11:21.820Z,72.59
2022-11-25T11:14:01.787Z,72.57
2022-11-25T11:16:38.901Z,73.00
2022-11-25T11:19:26.812Z,72.99
2022-11-25T11:22:00.241Z,72.92
2022-11-25T11:24:36.943Z,73.76
2022-11-25T11:27:27.158Z,73.98
2022-11-25T11:30:32.714Z,73.80
2022-11-25T11:33:32.309Z,74.03
2022-11-25T11:36:24.148Z,74.23
2022-11-25T11:38:57.891Z,73.70
2022-11-25T11:41:50.396Z,74.71
2022-11-25T11:45:02.785Z,74.85
2022-11-25T11:48:00.800Z,75.12
2022-11-25T11:50:40.038Z,74.58
2022-11-25T11:53:35.497Z,74.35
2022-11-25T11:56:34.297Z,73.61
2022-11-25T11:59:16.022Z,72.93
2022-11-25T12:02:14.591Z,72.23
2022-11-25T12:04:55.436Z,72.05
2022-11-25T12:08:04.401Z,71.76
2022-11-25T12:10:36.149Z,71.59
2022-11-25T12:13:43.532Z,71.54
2022-11-25T12:16:51.514Z,72.33
2022-11-25T12:19:56.400Z,72.58
2022-11-25T12:22:31.896Z,72.67
2022-11-25T12:25:18.175Z,72.80
2022-11-25T12:27:52.399Z,73.97
2022-11-25T12:30:52.474Z,74.36
2022-11-25T12:33:43.783Z,74.99
2022-11-25T12:36:45.444Z,75.71
2022-11-25T12:39:45.559Z,76.72
2022-11-25T12:42:27.802Z,76.85
2022-11-25T12:45:09.306Z,77.05
2022-11-25T12:47:40.656Z,77.39
2022-11-25T12:50:29.001Z,77.35
2022-11-25T12:53:14.020Z,77.15
2022-11-25T12:55:45.485Z,77.10
2022-11-25T12:59:02.598Z,77.22
2022-11-25T13:02:09.211Z,77.29
2022-11-25T13:05:07.641Z,76.91
2022-11-25T13:08:21.462Z,77.11
2022-11-25T13:10:59.146Z,77.30
2022-11-25T13:13:40.616Z,77.44
2022-11-25T13:16:12.984Z,77.23
2022-11-25T13:18:46.960Z,76.89
2022-11-25T13:21:19.976Z,77.73
2022-11-25T13:23:57.986Z,78.46
2022-11-25T13:26:40.604Z,78.41
2022-11-25T13:29:17.851Z,78.65
2022-11-25T13:32:09.236Z,78.63
2022-11-25T13:34:40.492Z,78.16
2022-11-25T13:37:42.872Z,78.61
2022-11-25T13:40:32.557Z,77.53
2022-11-25T13:43:04.051Z,77.38
2022-11-25T13:45:44.804Z,77.24
2022-11-25T13:48:34.279Z,77.00
2022-11-25T13:51:23.613Z,77.26
2022-11-25T13:54:08.734Z,77.40
2022-11-25T13:56:40.459Z,77.33
2022-11-25T13:59:18.787Z,77.26
2022-11-25T14:01:50.237Z,77.28
2022-11-25T14:04:43.148Z,77.44
2022-11-25T14:07:47.941Z,77.76
2022-11-25T14:10:31.187Z,78.33
2022-11-25T14:13:10.226Z,77.73
2022-11-25T14:16:12.666Z,78.46
2022-11-25T14:19:43.725Z,78.49
2022-11-25T14:22:32.533Z,78.41
2022-11-25T14:25:30.621Z,78.51
2022-11-25T14:28:22.056Z,77.92
2022-11-25T14:30:56.837Z,76.97
2022-11-25T14:33:38.451Z,76.59
2022-11-25T14:36:25.569Z,76.59
2022-11-25T14:39:01.914Z,76.16
2022-11-25T14:41:33.318Z,76.34
2022-11-25T14:44:29.741Z,75.90
2022-11-25T14:47:05.258Z,75.75
2022-11-25T14:50:05.747Z,75.01
2022-11-25T14:52:45.437Z,75.69
2022-11-25T14:55:31.881Z,74.60
2022-11-25T14:58:03.488Z,75.14
2022-11-25T15:00:35.487Z,75.24
2022-11-25T15:03:08.222Z,75.09
2022-11-25T15:05:42.543Z,74.93
2022-11-25T15:08:17.197Z,74.52
2022-11-25T15:11:01.175Z,74.19
2022-11-25T15:13:51.446Z,74.39
2022-11-25T15:16:27.217Z,74.26
2022-11-25T15:19:04.006Z,74.08
2022-11-25T15:22:14.457Z,74.10
2022-11-25T15:24:43.069Z,74.24
2022-11-25T15:27:22.783Z,74.34
2022-11-25T15:29:57.732Z,74.64
2022-11-25T15:32:32.322Z,74.46
2022-11-25T15:35:04.458Z,74.58
2022-11-25T15:37:35.838Z,74.34
2022-11-25T15:40:42.386Z,74.54
2022-11-25T15:43:31.154Z,73.95
2022-11-25T15:46:07.833Z,74.28
2022-11-25T15:48:47.803Z,73.82
2022-11-25T15:52:17.454Z,74.49
2022-11-25T15:54:52.325Z,74.32
2022-11-25T15:57:25.236Z,74.24
2022-11-25T15:59:56.549Z,74.44
2022-11-25T16:02:52.414Z,74.30
2022-11-25T16:05:33.409Z,73.75
2022-11-25T16:08:17.499Z,74.06
2022-11-25T16:10:53.266Z,74.57
2022-11-25T16:13:31.550Z,74.59
2022-11-25T16:16:19.552Z,73.97
2022-11-25T16:19:13.010Z,74.08
2022-11-25T16:21:53.746Z,74.05
2022-11-25T16:24:55.959Z,74.15
2022-11-25T16:27:32.853Z,74.31
2022-11-25T16:30:10.069Z,73.71
2022-11-25T16:32:41.790Z,74.27
2022-11-25T16:35:19.830Z,74.11
2022-11-25T16:37:51.640Z,73.89
2022-11-25T16:40:22.942Z,73.93
2022-11-25T16:42:54.901Z,74.21
2022-11-25T16:45:27.518Z,74.65
2022-11-25T16:47:59.057Z,74.46
2022-11-25T16:50:30.223Z,75.27
2022-11-25T16:53:01.480Z,74.58
2022-11-25T16:55:33.691Z,73.91
2022-11-25T16:58:08.472Z,74.35
2022-11-25T17:00:40.072Z,73.99
2022-11-25T17:03:13.679Z,74.75
2022-11-25T17:05:45.239Z,73.91
2022-11-25T17:08:16.423Z,74.57
2022-11-25T17:10:48.559Z,74.02
2022-11-25T17:13:27.522Z,74.19
2022-11-25T17:15:59.026Z,73.81
2022-11-25T17:18:30.829Z,73.95
2022-11-25T17:21:02.307Z,73.59
2022-11-25T17:23:33.940Z,73.61
2022-11-25T17:26:05.803Z,73.91
2022-11-25T17:28:37.195Z,74.92
2022-11-25T17:31:09.203Z,73.94
2022-11-25T17:33:43.812Z,73.82
2022-11-25T17:36:15.223Z,73.81
2022-11-25T17:38:46.581Z,73.63
2022-11-25T17:41:20.115Z,73.73
2022-11-25T17:43:53.708Z,73.78
2022-11-25T17:46:30.959Z,73.42
2022-11-25T17:49:02.550Z,74.05
2022-11-25T17:51:34.259Z,74.10
2022-11-25T17:54:05.975Z,73.60
2022-11-25T17:56:37.745Z,73.78
2022-11-25T17:59:33.653Z,73.91
2022-11-25T18:02:08.395Z,73.47
2022-11-25T18:04:40.751Z,73.76
2022-11-25T18:07:13.096Z,73.47
2022-11-25T18:09:45.833Z,73.90
2022-11-25T18:12:29.964Z,73.68
2022-11-25T18:15:09.028Z,73.84
2022-11-25T18:17:40.769Z,73.84
2022-11-25T18:20:24.591Z,73.62
2022-11-25T18:22:56.195Z,73.50
2022-11-25T18:25:32.260Z,73.48
2022-11-25T18:28:05.770Z,73.67
2022-11-25T18:30:40.200Z,73.73
2022-11-25T18:33:15.740Z,73.85
2022-11-25T18:35:48.308Z,73.45
2022-11-25T18:38:19.734Z,73.79
2022-11-25T18:40:53.869Z,73.86
2022-11-25T18:43:28.571Z,73.43
2022-11-25T18:45:59.974Z,73.73
2022-11-25T18:48:31.506Z,73.78
2022-11-25T18:51:02.814Z,74.12
2022-11-25T18:53:35.084Z,73.72
2022-11-25T18:56:07.116Z,73.48
2022-11-25T18:58:38.547Z,73.96
2022-11-25T19:01:15.747Z,73.96
2022-11-25T19:03:47.269Z,73.77
2022-11-25T19:06:18.924Z,74.09
2022-11-25T19:08:50.916Z,73.82
2022-11-25T19:11:39.875Z,73.32
2022-11-25T19:14:31.827Z,73.98
2022-11-25T19:17:16.719Z,73.55
2022-11-25T19:19:51.666Z,74.07
2022-11-25T19:22:24.274Z,73.77
2022-11-25T19:24:55.864Z,73.42
2022-11-25T19:27:28.334Z,73.68
2022-11-25T19:29:59.808Z,73.39
2022-11-25T19:32:33.108Z,73.86
2022-11-25T19:35:10.344Z,73.36
2022-11-25T19:37:41.961Z,73.63
2022-11-25T19:40:21.480Z,73.53
2022-11-25T19:42:53.012Z,73.56
2022-11-25T19:45:24.920Z,73.33
2022-11-25T19:47:56.253Z,73.96
2022-11-25T19:50:30.697Z,73.26
2022-11-25T19:53:02.342Z,74.09
2022-11-25T19:55:34.529Z,73.46
2022-11-25T19:58:06.002Z,73.99
2022-11-25T20:00:37.618Z,73.97
2022-11-25T20:03:28.734Z,73.05
2022-11-25T20:06:00.548Z,73.60
2022-11-25T20:08:32.144Z,73.63
2022-11-25T20:11:03.470Z,73.69
2022-11-25T20:13:36.186Z,73.52
2022-11-25T20:16:27.956Z,73.55
2022-11-25T20:19:01.507Z,73.65
2022-11-25T20:21:41.696Z,73.32
2022-11-25T20:24:20.373Z,73.88
2022-11-25T20:26:51.768Z,73.91
2022-11-25T20:29:28.971Z,73.96
2022-11-25T20:32:02.111Z,73.74
2022-11-25T20:34:40.462Z,74.04
2022-11-25T20:37:17.382Z,73.52
2022-11-25T20:39:48.705Z,73.77
2022-11-25T20:42:20.146Z,73.56
2022-11-25T20:44:56.081Z,73.63
2022-11-25T20:47:29.964Z,73.58
2022-11-25T20:50:01.202Z,73.73
2022-11-25T20:52:36.588Z,73.64
2022-11-25T20:55:26.334Z,73.69
2022-11-25T20:57:58.219Z,73.99
2022-11-25T21:00:30.743Z,73.82
2022-11-25T21:03:02.088Z,74.32
2022-11-25T21:05:33.453Z,74.22
2022-11-25T21:08:04.984Z,73.65
2022-11-25T21:10:36.629Z,73.84
2022-11-25T21:13:19.928Z,73.96
2022-11-25T21:15:51.625Z,74.18
2022-11-25T21:18:24.155Z,73.73
2022-11-25T21:20:58.759Z,73.64
2022-11-25T21:23:36.978Z,74.03
2022-11-25T21:26:37.465Z,74.44
2022-11-25T21:29:08.841Z,74.12
2022-11-25T21:31:40.189Z,73.85
2022-11-25T21:34:15.763Z,73.86
2022-11-25T21:36:50.691Z,73.64
2022-11-25T21:39:31.254Z,74.33
2022-11-25T21:42:08.574Z,73.84
2022-11-25T21:44:42.822Z,74.53
2022-11-25T21:47:17.897Z,74.20
2022-11-25T21:49:50.240Z,74.16
2022-11-25T21:52:21.700Z,74.57
2022-11-25T21:54:52.928Z,75.21
2022-11-25T21:57:29.841Z,74.06
2022-11-25T22:00:01.697Z,74.47
2022-11-25T22:02:36.399Z,74.06
2022-11-25T22:05:15.345Z,74.99
2022-11-25T22:07:46.883Z,74.75
2022-11-25T22:10:18.885Z,74.22
2022-11-25T22:12:51.137Z,74.14
2022-11-25T22:15:24.761Z,74.57
2022-11-25T22:17:59.719Z,74.73
2022-11-25T22:20:40.070Z,74.35
2022-11-25T22:23:22.500Z,74.11
2022-11-25T22:25:55.483Z,74.50
2022-11-25T22:28:29.379Z,74.10
2022-11-25T22:31:05.150Z,73.98
2022-11-25T22:33:39.056Z,74.04
2022-11-25T22:36:31.835Z,74.41
2022-11-25T22:39:20.868Z,74.25
2022-11-25T22:41:59.176Z,74.38
2022-11-25T22:44:51.777Z,74.60
2022-11-25T22:47:36.802Z,73.95
2022-11-25T22:50:32.861Z,74.17
2022-11-25T22:53:04.478Z,74.31
2022-11-25T22:55:35.847Z,75.42
2022-11-25T22:58:07.077Z,74.82
2022-11-25T23:00:42.321Z,74.73
2022-11-25T23:03:30.859Z,74.45
2022-11-25T23:06:04.626Z,75.62
2022-11-25T23:08:35.911Z,75.26
2022-11-25T23:11:08.119Z,75.68
2022-11-25T23:13:39.730Z,75.69
2022-11-25T23:16:13.127Z,76.14
2022-11-25T23:18:48.223Z,76.23
2022-11-25T23:21:23.033Z,76.35
2022-11-25T23:23:54.474Z,76.33
2022-11-25T23:26:30.985Z,76.71
2022-11-25T23:29:06.291Z,76.65
2022-11-25T23:31:41.946Z,76.80
2022-11-25T23:34:15.062Z,76.54
2022-11-25T23:36:51.065Z,76.39
2022-11-25T23:39:25.185Z,76.55
2022-11-25T23:41:56.823Z,76.53
2022-11-25T23:44:29.554Z,77.66
2022-11-25T23:47:03.999Z,76.66
2022-11-25T23:49:40.708Z,76.42
2022-11-25T23:52:16.616Z,76.88
2022-11-25T23:54:49.797Z,77.08
2022-11-25T23:57:27.087Z,77.05
2022-11-25T23:59:58.382Z,76.60
